Time;durP1;ratioP1;P1;durP2;ratioP2;P2;SDS_P1;SDS_P2;PMS_P1;PMS_P2;Temp;Humidity;BMP_temperature;BMP_pressure;BME280_temperature;BME280_humidity;BME280_pressure;Samples;Min_cycle;Max_cycle;Signal;HPM_P1;HPM_P2
2023/08/28 00:01:13;;;;;;;;;;;;;;;15.73;70.50;99582.53;4955089;28;2082;-83
2023/08/28 00:04:06;;;;;;;;;;;;;;;15.86;70.06;99582.75;4951729;28;1544;-83
2023/08/28 00:06:58;;;;;;;;;;;;;;;15.86;69.83;99580.03;4955912;28;1590;-84
2023/08/28 00:09:51;;;;;;;;;;;;;;;15.94;69.74;99575.09;4954271;29;1384;-84
2023/08/28 00:12:43;;;;;;;;;;;;;;;16.10;69.21;99576.66;4956595;28;2312;-85
2023/08/28 00:15:35;;;;;;;;;;;;;;;15.94;69.56;99581.34;4954465;28;1966;-84
2023/08/28 00:18:26;;;;;;;;;;;;;;;15.89;69.85;99565.09;4956811;28;2136;-84
2023/08/28 00:21:18;;;;;;;;;;;;;;;15.89;69.75;99571.34;4954199;29;1101;-82
2023/08/28 00:24:11;;;;;;;;;;;;;;;15.93;69.55;99576.22;4951183;28;1554;-82
2023/08/28 00:27:02;;;;;;;;;;;;;;;15.96;69.30;99573.75;4955253;28;1411;-85
2023/08/28 00:29:54;;;;;;;;;;;;;;;15.83;69.88;99574.34;4952467;28;2130;-84
2023/08/28 00:32:47;;;;;;;;;;;;;;;15.84;69.71;99568.63;4941218;28;1537;-83
2023/08/28 00:35:39;;;;;;;;;;;;;;;15.92;69.44;99569.97;4951830;28;1978;-84
2023/08/28 00:38:31;;;;;;;;;;;;;;;15.96;69.39;99571.03;4954889;28;1466;-84
2023/08/28 00:41:23;;;;;;;;;;;;;;;15.92;69.41;99567.25;4953912;28;1510;-83
2023/08/28 00:44:15;;;;;;;;;;;;;;;16.09;68.96;99565.00;4954415;28;1383;-83
2023/08/28 00:47:07;;;;;;;;;;;;;;;15.97;69.22;99563.69;4942504;28;2518;-84
2023/08/28 00:49:59;;;;;;;;;;;;;;;15.99;69.16;99570.47;4946177;28;2361;-82
2023/08/28 00:52:51;;;;;;;;;;;;;;;15.96;69.26;99572.94;4947617;28;2321;-82
2023/08/28 00:55:43;;;;;;;;;;;;;;;16.03;69.03;99576.16;4945227;28;2404;-84
2023/08/28 00:58:35;;;;;;;;;;;;;;;15.98;69.21;99574.28;4928583;28;2256;-83
2023/08/28 01:01:27;;;;;;;;;;;;;;;16.02;68.87;99585.41;4933151;28;2331;-83
2023/08/28 01:04:18;;;;;;;;;;;;;;;15.95;69.09;99572.13;4929350;28;2257;-84
2023/08/28 01:07:11;;;;;;;;;;;;;;;15.92;69.23;99574.59;4934743;28;2741;-84
2023/08/28 01:10:02;;;;;;;;;;;;;;;15.95;69.09;99569.41;4935927;28;2325;-82
2023/08/28 01:12:55;;;;;;;;;;;;;;;16.02;68.76;99575.34;4938371;28;2401;-84
2023/08/28 01:15:47;;;;;;;;;;;;;;;15.99;68.87;99570.47;4914271;28;2238;-84
2023/08/28 01:18:39;;;;;;;;;;;;;;;16.02;68.77;99574.53;4931717;28;2565;-84
2023/08/28 01:21:31;;;;;;;;;;;;;;;15.96;68.97;99572.94;4933652;28;2265;-84
2023/08/28 01:24:22;;;;;;;;;;;;;;;16.10;68.46;99573.94;4940466;28;2573;-83
2023/08/28 01:27:14;;;;;;;;;;;;;;;16.02;68.65;99574.53;4928554;28;2427;-83
2023/08/28 01:30:06;;;;;;;;;;;;;;;15.55;68.97;99516.88;4932033;28;2367;-82
2023/08/28 01:32:58;;;;;;;;;;;;;;;16.10;68.30;99580.19;4942344;28;1712;-84
2023/08/28 01:35:50;;;;;;;;;;;;;;;16.01;68.52;99572.91;4945604;28;1968;-84
2023/08/28 01:38:42;;;;;;;;;;;;;;;15.95;68.96;99568.59;4940881;28;1995;-85
2023/08/28 01:41:34;;;;;;;;;;;;;;;15.94;68.72;99575.91;4936910;28;2367;-84
2023/08/28 01:44:26;;;;;;;;;;;;;;;16.02;68.56;99569.09;4939946;28;2217;-85
2023/08/28 01:47:18;;;;;;;;;;;;;;;16.10;68.19;99572.03;4929028;28;2269;-83
2023/08/28 01:50:10;;;;;;;;;;;;;;;15.94;68.78;99569.69;4928144;28;2272;-85
2023/08/28 01:53:01;;;;;;;;;;;;;;;16.06;68.26;99570.16;4932938;28;2229;-84
2023/08/28 01:55:54;;;;;;;;;;;;;;;16.13;68.08;99568.75;4935075;28;2288;-84
2023/08/28 01:58:46;;;;;;;;;;;;;;;16.04;68.32;99561.50;4928066;28;2242;-83
2023/08/28 02:01:38;;;;;;;;;;;;;;;16.02;68.28;99566.38;4933955;28;2384;-84
2023/08/28 02:04:29;;;;;;;;;;;;;;;16.07;68.07;99564.47;4965765;28;1428;-84
2023/08/28 02:07:22;;;;;;;;;;;;;;;16.03;68.27;99560.69;4946022;28;2194;-83
2023/08/28 02:10:14;;;;;;;;;;;;;;;16.00;68.34;99571.28;4946202;28;2310;-84
2023/08/28 02:13:06;;;;;;;;;;;;;;;16.05;68.14;99563.09;4943378;28;2788;-83
2023/08/28 02:15:58;;;;;;;;;;;;;;;16.08;67.98;99570.69;4941298;28;2292;-83
2023/08/28 02:18:50;;;;;;;;;;;;;;;16.01;68.17;99565.56;4934290;28;2385;-83
2023/08/28 02:21:41;;;;;;;;;;;;;;;16.07;67.98;99556.31;4914631;28;2231;-82
2023/08/28 02:24:34;;;;;;;;;;;;;;;16.12;67.78;99563.63;4935429;28;2651;-85
2023/08/28 02:27:26;;;;;;;;;;;;;;;16.07;67.92;99556.31;4933691;28;2198;-87
2023/08/28 02:30:18;;;;;;;;;;;;;;;15.99;68.25;99565.03;4933648;28;2553;-86
2023/08/28 02:33:10;;;;;;;;;;;;;;;16.07;67.85;99558.22;4934545;28;2361;-84
2023/08/28 02:36:02;;;;;;;;;;;;;;;16.05;67.89;99561.19;4931907;28;2253;-86
2023/08/28 02:38:53;;;;;;;;;;;;;;;16.00;68.19;99561.25;4933995;28;2226;-86
2023/08/28 02:41:46;;;;;;;;;;;;;;;16.06;67.79;99560.13;4938029;28;2214;-85
2023/08/28 02:44:37;;;;;;;;;;;;;;;16.07;67.89;99559.03;4928184;28;2186;-85
2023/08/28 02:47:30;;;;;;;;;;;;;;;16.06;67.73;99559.28;4934909;28;2292;-85
2023/08/28 02:50:22;;;;;;;;;;;;;;;15.95;68.08;99555.03;4931280;28;2205;-85
2023/08/28 02:53:14;;;;;;;;;;;;;;;16.07;67.78;99563.66;4945529;28;1723;-88
2023/08/28 02:56:06;;;;;;;;;;;;;;;16.03;67.78;99557.97;4939821;28;2043;-87
2023/08/28 02:58:58;;;;;;;;;;;;;;;15.99;68.01;99556.09;4948363;28;1958;-87
2023/08/28 03:01:50;;;;;;;;;;;;;;;15.98;67.89;99558.00;4947805;28;1755;-87
2023/08/28 03:04:42;;;;;;;;;;;;;;;16.03;67.72;99552.53;4944124;28;1953;-85
2023/08/28 03:07:34;;;;;;;;;;;;;;;15.95;67.95;99555.03;4946596;28;1699;-85
2023/08/28 03:10:26;;;;;;;;;;;;;;;16.00;67.82;99558.53;4944845;28;1774;-86
2023/08/28 03:13:18;;;;;;;;;;;;;;;15.93;67.97;99559.91;4949981;28;1606;-85
2023/08/28 03:16:10;;;;;;;;;;;;;;;16.06;67.55;99564.72;4941465;28;2182;-86
2023/08/28 03:19:02;;;;;;;;;;;;;;;16.05;67.53;99563.91;4946766;28;1676;-85
2023/08/28 03:21:54;;;;;;;;;;;;;;;15.99;67.70;99565.03;4942088;28;1685;-83
2023/08/28 03:24:47;;;;;;;;;;;;;;;16.00;67.71;99558.53;4927407;29;1950;-85
2023/08/28 03:27:39;;;;;;;;;;;;;;;15.98;67.78;99555.28;4915983;29;2545;-85
2023/08/28 03:30:31;;;;;;;;;;;;;;;16.00;67.69;99561.25;4915030;29;2564;-83
2023/08/28 03:33:23;;;;;;;;;;;;;;;15.96;67.70;99556.63;4910155;29;3049;-83
2023/08/28 03:36:15;;;;;;;;;;;;;;;15.99;67.65;99553.38;4916153;29;2236;-83
2023/08/28 03:39:07;;;;;;;;;;;;;;;15.96;67.71;99562.06;4917246;29;2275;-85
2023/08/28 03:41:59;;;;;;;;;;;;;;;16.02;67.44;99558.25;4925344;29;2355;-84
2023/08/28 03:44:51;;;;;;;;;;;;;;;15.89;67.90;99555.03;4915441;29;2298;-83
2023/08/28 03:47:43;;;;;;;;;;;;;;;15.96;67.71;99552.00;4916741;29;2276;-84
2023/08/28 03:50:35;;;;;;;;;;;;;;;15.92;67.68;99558.31;4921951;29;2183;-84
2023/08/28 03:53:27;;;;;;;;;;;;;;;15.90;67.69;99555.84;4923911;29;2053;-84
2023/08/28 03:56:19;;;;;;;;;;;;;;;15.88;67.74;99561.56;4909955;29;2260;-84
2023/08/28 03:59:11;;;;;;;;;;;;;;;15.90;67.76;99564.00;4929900;29;1692;-83
2023/08/28 04:02:03;;;;;;;;;;;;;;;15.96;67.53;99553.94;4915275;29;2289;-83
2023/08/28 04:04:54;;;;;;;;;;;;;;;15.84;67.97;99557.78;4914232;29;2323;-82
2023/08/28 04:07:47;;;;;;;;;;;;;;;15.85;67.84;99555.88;4909981;29;2394;-83
2023/08/28 04:10:38;;;;;;;;;;;;;;;15.85;67.89;99559.41;4917947;29;2457;-84
2023/08/28 04:13:30;;;;;;;;;;;;;;;15.86;67.74;99555.59;4913498;29;2239;-84
2023/08/28 04:16:22;;;;;;;;;;;;;;;15.91;67.54;99552.03;4908636;29;2254;-82
2023/08/28 04:19:14;;;;;;;;;;;;;;;15.94;67.37;99573.19;4913762;29;2216;-82
2023/08/28 04:22:06;;;;;;;;;;;;;;;15.92;67.43;99561.81;4914155;29;2262;-84
2023/08/28 04:24:59;;;;;;;;;;;;;;;15.88;67.71;99563.44;4915874;29;2271;-82
2023/08/28 04:27:51;;;;;;;;;;;;;;;15.95;67.44;99561.25;4910348;29;2238;-84
2023/08/28 04:30:43;;;;;;;;;;;;;;;15.82;67.87;99556.44;4915046;29;2520;-84
2023/08/28 04:33:35;;;;;;;;;;;;;;;15.96;67.41;99559.34;4912323;29;2761;-83
2023/08/28 04:36:27;;;;;;;;;;;;;;;15.86;67.55;99557.50;4917332;29;2270;-84
2023/08/28 04:39:20;;;;;;;;;;;;;;;15.76;67.92;99555.63;4914283;29;2547;-84
2023/08/28 04:42:12;;;;;;;;;;;;;;;15.87;67.57;99559.13;4924917;29;2170;-84
2023/08/28 04:45:04;;;;;;;;;;;;;;;15.90;67.42;99562.09;4927298;29;1726;-83
2023/08/28 04:47:56;;;;;;;;;;;;;;;15.84;67.56;99565.91;4928875;29;1543;-85
2023/08/28 04:50:48;;;;;;;;;;;;;;;15.84;67.63;99565.13;4921855;29;2246;-84
2023/08/28 04:53:40;;;;;;;;;;;;;;;15.87;67.49;99564.56;4912447;29;2575;-84
2023/08/28 04:56:32;;;;;;;;;;;;;;;15.80;67.69;99572.19;4912135;29;2375;-84
2023/08/28 04:59:24;;;;;;;;;;;;;;;15.74;67.84;99574.13;4930700;29;1641;-84
2023/08/28 05:02:16;;;;;;;;;;;;;;;15.72;67.87;99570.06;4933154;28;2163;-84
2023/08/28 05:05:08;;;;;;;;;;;;;;;15.78;67.58;99577.09;4930750;29;1501;-83
2023/08/28 05:08:01;;;;;;;;;;;;;;;15.79;67.62;99593.09;4927401;29;1418;-84
2023/08/28 05:10:52;;;;;;;;;;;;;;;15.75;67.78;99589.31;4933789;29;2049;-84
2023/08/28 05:13:43;;;;;;;;;;;;;;;15.82;67.49;99584.38;4928557;29;2040;-83
2023/08/28 05:16:35;;;;;;;;;;;;;;;15.77;67.65;99584.41;4927887;29;2001;-84
2023/08/28 05:19:27;;;;;;;;;;;;;;;15.75;67.67;99578.44;4925997;29;2030;-85
2023/08/28 05:22:19;;;;;;;;;;;;;;;15.82;67.28;99573.53;4929441;28;1644;-82
2023/08/28 05:25:11;;;;;;;;;;;;;;;15.85;67.28;99580.31;4942574;28;2452;-84
2023/08/28 05:28:03;;;;;;;;;;;;;;;15.84;67.29;99578.69;4940673;28;1589;-83
2023/08/28 05:30:55;;;;;;;;;;;;;;;15.78;67.46;99575.19;4953430;28;2050;-82
2023/08/28 05:33:47;;;;;;;;;;;;;;;15.81;67.34;99577.34;4953579;28;1917;-82
2023/08/28 05:36:39;;;;;;;;;;;;;;;15.74;67.61;99576.03;4951621;28;1938;-84
2023/08/28 05:39:31;;;;;;;;;;;;;;;15.67;67.78;99578.97;4952741;28;2118;-81
2023/08/28 05:42:23;;;;;;;;;;;;;;;15.71;67.56;99574.69;4952574;28;1652;-82
2023/08/28 05:45:15;;;;;;;;;;;;;;;15.72;67.71;99578.19;4948796;28;1383;-83
2023/08/28 05:48:07;;;;;;;;;;;;;;;15.72;67.65;99584.44;4953186;28;2129;-83
2023/08/28 05:50:59;;;;;;;;;;;;;;;15.74;67.53;99584.97;4952920;28;2277;-82
2023/08/28 05:53:51;;;;;;;;;;;;;;;15.77;67.37;99580.91;4953217;28;2444;-82
2023/08/28 05:56:43;;;;;;;;;;;;;;;15.71;67.50;99580.09;4953423;28;2174;-83
2023/08/28 05:59:35;;;;;;;;;;;;;;;15.82;67.19;99573.53;4949277;28;2328;-83
2023/08/28 06:02:27;;;;;;;;;;;;;;;15.73;67.43;99583.34;4949121;28;2266;-83
2023/08/28 06:05:19;;;;;;;;;;;;;;;15.73;67.38;99585.25;4953366;28;2321;-81
2023/08/28 06:08:10;;;;;;;;;;;;;;;15.71;67.53;99590.16;4953279;28;2493;-82
2023/08/28 06:11:03;;;;;;;;;;;;;;;15.69;67.53;99595.03;4954805;28;1536;-82
2023/08/28 06:13:55;;;;;;;;;;;;;;;15.67;67.63;99592.56;4951038;28;1653;-81
2023/08/28 06:16:47;;;;;;;;;;;;;;;15.66;67.86;99599.88;4950621;28;3300;-82
2023/08/28 06:19:39;;;;;;;;;;;;;;;15.82;67.10;99603.38;4953886;28;2111;-82
2023/08/28 06:22:30;;;;;;;;;;;;;;;15.76;67.33;99607.22;4951972;28;2560;-82
2023/08/28 06:25:22;;;;;;;;;;;;;;;15.74;67.35;99606.69;4948177;28;5510;-82
2023/08/28 06:28:14;;;;;;;;;;;;;;;15.70;67.28;99605.59;4950053;28;4857;-83
2023/08/28 06:31:06;;;;;;;;;;;;;;;15.62;67.70;99604.25;4948857;28;2171;-82
2023/08/28 06:33:58;;;;;;;;;;;;;;;15.69;67.44;99604.00;4954629;28;2335;-84
2023/08/28 06:36:51;;;;;;;;;;;;;;;15.71;67.27;99601.00;4952838;28;1964;-83
2023/08/28 06:39:43;;;;;;;;;;;;;;;15.58;67.82;99607.78;4952084;28;2250;-80
2023/08/28 06:42:35;;;;;;;;;;;;;;;15.16;72.95;99593.50;4953394;28;2220;-84
2023/08/28 06:45:27;;;;;;;;;;;;;;;15.08;72.91;99593.22;4954355;28;5056;-84
2023/08/28 06:48:19;;;;;;;;;;;;;;;15.39;71.15;99589.38;4953285;28;2214;-84
2023/08/28 06:51:11;;;;;;;;;;;;;;;15.28;70.95;99595.09;4954364;28;2181;-83
2023/08/28 06:54:03;;;;;;;;;;;;;;;15.24;70.71;99594.84;4953335;28;2038;-82
2023/08/28 06:56:54;;;;;;;;;;;;;;;15.49;69.83;99599.41;4954960;28;2234;-85
2023/08/28 06:59:46;;;;;;;;;;;;;;;15.28;70.32;99597.81;4958123;28;2262;-86
2023/08/28 07:02:38;;;;;;;;;;;;;;;15.10;70.80;99601.91;4962099;28;2161;-87
2023/08/28 07:05:30;;;;;;;;;;;;;;;15.28;70.09;99597.81;4956519;28;2111;-84
2023/08/28 07:08:22;;;;;;;;;;;;;;;15.26;70.11;99599.97;4951583;28;3354;-85
2023/08/28 07:11:14;;;;;;;;;;;;;;;15.39;69.52;99602.16;4957012;28;2151;-87
2023/08/28 07:14:06;;;;;;;;;;;;;;;15.49;69.14;99607.53;4957754;28;1547;-85
2023/08/28 07:16:58;;;;;;;;;;;;;;;15.14;70.12;99603.78;4957671;28;1898;-84
2023/08/28 07:19:50;;;;;;;;;;;;;;;15.34;69.42;99604.84;4954050;28;1352;-85
2023/08/28 07:22:42;;;;;;;;;;;;;;;15.31;69.60;99611.63;4954423;28;2139;-84
2023/08/28 07:25:34;;;;;;;;;;;;;;;15.31;69.48;99608.13;4957714;28;2151;-86
2023/08/28 07:28:26;;;;;;;;;;;;;;;15.23;69.74;99609.47;4957288;28;1344;-86
2023/08/28 07:31:18;;;;;;;;;;;;;;;15.40;69.19;99615.41;4952075;28;3248;-87
2023/08/28 07:34:10;;;;;;;;;;;;;;;15.19;69.75;99609.22;4957491;28;1369;-86
2023/08/28 07:37:02;;;;;;;;;;;;;;;15.21;69.76;99612.47;4950226;28;1907;-85
2023/08/28 07:39:54;;;;;;;;;;;;;;;15.34;69.17;99610.28;4948316;28;2055;-86
2023/08/28 07:42:46;;;;;;;;;;;;;;;15.31;69.22;99614.34;4955342;28;2315;-86
2023/08/28 07:45:38;;;;;;;;;;;;;;;15.11;70.04;99615.19;4957070;28;1409;-85
2023/08/28 07:48:30;;;;;;;;;;;;;;;15.10;70.05;99610.84;4953962;28;1806;-86
2023/08/28 07:51:22;;;;;;;;;;;;;;;15.18;69.70;99610.31;4953245;28;2372;-85
2023/08/28 07:54:14;;;;;;;;;;;;;;;15.02;70.22;99608.69;4957258;28;1392;-84
2023/08/28 07:57:06;;;;;;;;;;;;;;;15.13;69.83;99604.06;4957645;28;2079;-86
2023/08/28 07:59:58;;;;;;;;;;;;;;;15.10;69.87;99610.03;4957478;28;1400;-85
2023/08/28 08:02:51;;;;;;;;;;;;;;;15.01;70.22;99611.69;4962172;28;1660;-80
2023/08/28 08:05:43;;;;;;;;;;;;;;;14.98;70.33;99616.56;4957854;28;2070;-83
2023/08/28 08:08:35;;;;;;;;;;;;;;;15.15;69.76;99616.28;4956169;28;2172;-81
2023/08/28 08:11:27;;;;;;;;;;;;;;;14.98;70.38;99616.56;4956709;28;2066;-81
2023/08/28 08:14:19;;;;;;;;;;;;;;;15.01;70.35;99615.19;4955273;28;1892;-82
2023/08/28 08:17:12;;;;;;;;;;;;;;;15.00;70.32;99610.88;4953800;28;5797;-82
2023/08/28 08:20:04;;;;;;;;;;;;;;;14.99;70.45;99611.94;4949893;29;2495;-81
2023/08/28 08:22:56;;;;;;;;;;;;;;;14.93;70.49;99603.00;4953679;28;2994;-81
2023/08/28 08:25:48;;;;;;;;;;;;;;;14.99;70.37;99607.31;4953656;28;2326;-81
2023/08/28 08:28:41;;;;;;;;;;;;;;;15.03;70.05;99599.47;4950764;28;2033;-81
2023/08/28 08:31:32;;;;;;;;;;;;;;;14.91;70.61;99601.63;4951411;28;2206;-81
2023/08/28 08:34:24;;;;;;;;;;;;;;;14.89;70.75;99601.91;4950477;28;4751;-82
2023/08/28 08:37:16;;;;;;;;;;;;;;;14.94;70.38;99595.66;4954181;28;2067;-82
2023/08/28 08:40:08;;;;;;;;;;;;;;;14.99;70.17;99593.75;4954559;28;2173;-82
2023/08/28 08:43:00;;;;;;;;;;;;;;;14.92;70.57;99601.38;4949788;28;2738;-81
2023/08/28 08:45:52;;;;;;;;;;;;;;;14.90;70.68;99597.31;4955668;28;2294;-81
2023/08/28 08:48:44;;;;;;;;;;;;;;;14.97;70.39;99597.81;4956359;28;2514;-82
2023/08/28 08:51:36;;;;;;;;;;;;;;;14.94;70.54;99591.06;4948834;28;3191;-80
2023/08/28 08:54:30;;;;;;;;;;;;;;;14.98;70.27;99588.63;4950403;28;2351;-81
2023/08/28 08:57:21;;;;;;;;;;;;;;;14.92;70.64;99592.44;4948670;28;2838;-82
2023/08/28 09:00:14;;;;;;;;;;;;;;;14.93;70.56;99597.56;4952122;28;2296;-83
2023/08/28 09:03:06;;;;;;;;;;;;;;;14.97;70.34;99595.13;4943844;28;5464;-80
2023/08/28 09:05:59;;;;;;;;;;;;;;;15.01;70.22;99590.00;4950424;28;2406;-82
2023/08/28 09:08:51;;;;;;;;;;;;;;;15.02;70.28;99597.03;4951586;29;4615;-83
2023/08/28 09:11:45;;;;;;;;;;;;;;;15.00;70.26;99597.31;4950206;28;2053;-84
2023/08/28 09:14:37;;;;;;;;;;;;;;;15.07;69.98;99597.03;4951478;29;1555;-86
2023/08/28 09:17:29;;;;;;;;;;;;;;;15.06;70.04;99593.50;4960648;23;1930;-85
2023/08/28 09:20:21;;;;;;;;;;;;;;;15.12;69.85;99594.31;4950304;28;5070;-86
2023/08/28 09:23:13;;;;;;;;;;;;;;;15.14;69.67;99590.22;4939240;28;5201;-84
2023/08/28 09:26:05;;;;;;;;;;;;;;;15.15;69.71;99593.78;4952762;28;5918;-84
2023/08/28 09:28:57;;;;;;;;;;;;;;;15.18;69.69;99593.22;4949483;28;2291;-86
2023/08/28 09:31:49;;;;;;;;;;;;;;;15.18;69.55;99598.66;4949443;28;2175;-85
2023/08/28 09:34:41;;;;;;;;;;;;;;;15.15;69.71;99589.16;4952923;28;1485;-84
2023/08/28 09:37:33;;;;;;;;;;;;;;;15.14;69.74;99587.50;4953941;28;1958;-84
2023/08/28 09:40:25;;;;;;;;;;;;;;;15.12;69.87;99583.47;4954395;28;1005;-84
2023/08/28 09:43:17;;;;;;;;;;;;;;;15.13;69.85;99582.38;4949595;28;4797;-85
2023/08/28 09:46:09;;;;;;;;;;;;;;;15.16;69.80;99587.25;4950383;28;5281;-86
2023/08/28 09:49:01;;;;;;;;;;;;;;;15.15;69.67;99585.63;4944933;28;5396;-84
2023/08/28 09:51:53;;;;;;;;;;;;;;;15.14;69.82;99592.94;4952044;28;5330;-84
2023/08/28 09:54:54;;;;;;;;;;;;;;;15.17;69.72;99592.41;4944830;28;5041;-86
2023/08/28 09:57:46;;;;;;;;;;;;;;;15.17;69.78;99591.59;4951150;28;2242;-86
2023/08/28 10:00:38;;;;;;;;;;;;;;;15.18;69.83;99587.81;4956490;28;1607;-85
2023/08/28 10:03:30;;;;;;;;;;;;;;;15.18;69.75;99588.63;4950717;28;2228;-85
2023/08/28 10:06:22;;;;;;;;;;;;;;;15.18;69.89;99596.75;4938569;28;4518;-84
2023/08/28 10:09:18;;;;;;;;;;;;;;;15.19;69.79;99600.28;4958627;28;1685;-83
2023/08/28 10:12:10;;;;;;;;;;;;;;;15.19;69.80;99595.66;4959501;28;1783;-84
2023/08/28 10:15:01;;;;;;;;;;;;;;;15.21;69.71;99590.78;4962064;28;1837;-84
2023/08/28 10:17:53;;;;;;;;;;;;;;;15.22;69.82;99597.81;4965828;28;1910;-84
2023/08/28 10:20:45;;;;;;;;;;;;;;;15.23;69.78;99590.50;4988489;28;1936;-84
2023/08/28 10:23:37;;;;;;;;;;;;;;;15.23;69.79;99587.78;4984869;28;1505;-83
2023/08/28 10:26:29;;;;;;;;;;;;;;;15.25;69.79;99593.75;4977000;28;1589;-84
2023/08/28 10:29:21;;;;;;;;;;;;;;;15.24;69.90;99580.47;4977613;28;1779;-85
2023/08/28 10:32:13;;;;;;;;;;;;;;;15.24;69.82;99585.91;4979017;28;1675;-84
2023/08/28 10:35:05;;;;;;;;;;;;;;;15.25;69.84;99580.19;4975146;28;1997;-84
2023/08/28 10:37:57;;;;;;;;;;;;;;;15.23;69.86;99571.50;4979070;28;1923;-83
2023/08/28 10:40:49;;;;;;;;;;;;;;;15.24;69.91;99572.34;4980593;28;1992;-84
2023/08/28 10:43:41;;;;;;;;;;;;;;;15.24;69.98;99575.84;4975523;28;2174;-84
2023/08/28 10:46:33;;;;;;;;;;;;;;;15.24;69.98;99573.16;4976399;28;1489;-81
2023/08/28 10:49:25;;;;;;;;;;;;;;;15.20;70.22;99581.00;4969445;28;1997;-83
2023/08/28 10:52:17;;;;;;;;;;;;;;;15.24;70.06;99572.34;4987830;28;5098;-84
2023/08/28 10:55:10;;;;;;;;;;;;;;;15.25;70.13;99571.25;4974739;28;1534;-85
2023/08/28 10:58:03;;;;;;;;;;;;;;;15.24;70.23;99569.63;4975095;28;4990;-86
2023/08/28 11:00:54;;;;;;;;;;;;;;;15.22;70.16;99570.69;4973823;28;1517;-84
2023/08/28 11:03:45;;;;;;;;;;;;;;;15.25;70.17;99560.41;4962036;28;2332;-83
2023/08/28 11:06:39;;;;;;;;;;;;;;;15.24;70.26;99567.72;4960706;28;2530;-86
2023/08/28 11:09:31;;;;;;;;;;;;;;;15.24;70.23;99575.84;4965371;28;4611;-86
2023/08/28 11:12:23;;;;;;;;;;;;;;;15.26;70.16;99568.25;4955019;28;2376;-85
2023/08/28 11:15:15;;;;;;;;;;;;;;;15.26;70.25;99568.25;4953170;28;2534;-83
2023/08/28 11:18:07;;;;;;;;;;;;;;;15.26;70.29;99562.81;4956303;28;2629;-84
2023/08/28 11:20:59;;;;;;;;;;;;;;;15.28;70.30;99573.41;4954137;28;2513;-84
2023/08/28 11:23:51;;;;;;;;;;;;;;;15.28;70.32;99563.38;4961182;28;2531;-84
2023/08/28 11:26:43;;;;;;;;;;;;;;;15.29;70.23;99559.56;4964983;28;2162;-84
2023/08/28 11:29:35;;;;;;;;;;;;;;;15.31;70.19;99564.72;4957142;28;2416;-84
2023/08/28 11:32:27;;;;;;;;;;;;;;;15.32;70.17;99567.13;4958466;28;2323;-84
2023/08/28 11:35:19;;;;;;;;;;;;;;;15.33;70.25;99571.50;4956619;28;2487;-84
2023/08/28 11:38:11;;;;;;;;;;;;;;;15.34;70.17;99567.69;4957956;28;2184;-84
2023/08/28 11:41:04;;;;;;;;;;;;;;;15.34;70.20;99570.41;4958718;28;2159;-84
2023/08/28 11:43:56;;;;;;;;;;;;;;;15.36;70.21;99568.22;4954125;28;2122;-84
2023/08/28 11:46:48;;;;;;;;;;;;;;;15.38;70.21;99565.22;4954720;28;2426;-84
2023/08/28 11:49:39;;;;;;;;;;;;;;;15.36;70.21;99560.09;4956043;28;2210;-84
2023/08/28 11:52:31;;;;;;;;;;;;;;;15.38;70.32;99560.63;4968497;28;2076;-85
2023/08/28 11:55:23;;;;;;;;;;;;;;;15.39;70.33;99567.69;4958237;28;2685;-83
2023/08/28 11:58:14;;;;;;;;;;;;;;;15.38;70.33;99566.06;4957198;28;2215;-85
2023/08/28 12:01:07;;;;;;;;;;;;;;;15.39;70.39;99564.16;4956360;28;2476;-83
2023/08/28 12:03:59;;;;;;;;;;;;;;;15.40;70.30;99566.59;4957188;28;2426;-84
2023/08/28 12:06:51;;;;;;;;;;;;;;;15.40;70.40;99563.88;4990899;23;1919;-83
2023/08/28 12:09:43;;;;;;;;;;;;;;;15.40;70.39;99561.16;4989128;28;1837;-83
2023/08/28 12:12:35;;;;;;;;;;;;;;;15.41;70.44;99559.25;4986282;28;2221;-84
2023/08/28 12:15:27;;;;;;;;;;;;;;;15.41;70.51;99560.09;4983909;28;1882;-82
2023/08/28 12:18:19;;;;;;;;;;;;;;;15.43;70.56;99551.66;4986298;28;2157;-84
2023/08/28 12:21:11;;;;;;;;;;;;;;;15.44;70.44;99561.41;4984749;28;2083;-83
2023/08/28 12:24:06;;;;;;;;;;;;;;;15.43;70.45;99555.19;4986498;28;2224;-83
2023/08/28 12:26:58;;;;;;;;;;;;;;;15.45;70.52;99552.22;4991559;28;1828;-84
2023/08/28 12:29:50;;;;;;;;;;;;;;;15.46;70.72;99553.81;4996221;28;1785;-84
2023/08/28 12:32:42;;;;;;;;;;;;;;;15.47;70.75;99560.88;4986310;28;2157;-84
2023/08/28 12:35:34;;;;;;;;;;;;;;;15.47;70.86;99557.34;4994524;28;1907;-85
2023/08/28 12:38:27;;;;;;;;;;;;;;;15.47;70.86;99560.88;4984329;28;1956;-84
2023/08/28 12:41:19;;;;;;;;;;;;;;;15.49;70.75;99560.59;4962077;28;2133;-83
2023/08/28 12:44:12;;;;;;;;;;;;;;;15.49;70.83;99557.88;4971435;28;1588;-83
2023/08/28 12:47:04;;;;;;;;;;;;;;;15.50;70.93;99562.22;4968982;28;1604;-85
2023/08/28 12:49:56;;;;;;;;;;;;;;;15.50;70.92;99560.34;4963904;28;1546;-84
2023/08/28 12:52:48;;;;;;;;;;;;;;;15.52;70.89;99558.13;4971966;28;1561;-84
2023/08/28 12:55:40;;;;;;;;;;;;;;;15.52;70.87;99560.84;4975185;28;1562;-85
2023/08/28 12:58:31;;;;;;;;;;;;;;;15.53;70.86;99558.94;4966498;28;1946;-84
2023/08/28 13:01:23;;;;;;;;;;;;;;;15.54;70.97;99552.44;4972047;28;1960;-83
2023/08/28 13:04:15;;;;;;;;;;;;;;;15.54;70.95;99541.59;4968102;28;1933;-84
2023/08/28 13:07:07;;;;;;;;;;;;;;;15.56;70.99;99547.53;4953012;28;1935;-84
2023/08/28 13:09:59;;;;;;;;;;;;;;;15.57;71.09;99541.03;4952649;28;1535;-83
2023/08/28 13:12:51;;;;;;;;;;;;;;;15.57;71.11;99544.56;4952230;28;1896;-83
2023/08/28 13:15:43;;;;;;;;;;;;;;;15.58;71.08;99546.19;4954010;28;1958;-84
2023/08/28 13:18:35;;;;;;;;;;;;;;;15.58;71.21;99551.59;4953358;28;1952;-84
2023/08/28 13:21:26;;;;;;;;;;;;;;;15.59;71.21;99558.69;4948657;28;1510;-82
2023/08/28 13:24:18;;;;;;;;;;;;;;;15.62;71.31;99568.16;4952166;28;2232;-84
2023/08/28 13:27:10;;;;;;;;;;;;;;;15.62;71.30;99554.59;4953816;28;1650;-82
2023/08/28 13:30:03;;;;;;;;;;;;;;;15.63;71.25;99554.31;4954154;28;1976;-84
2023/08/28 13:32:56;;;;;;;;;;;;;;;15.64;71.35;99558.63;4946060;28;2258;-82
2023/08/28 13:35:48;;;;;;;;;;;;;;;15.66;71.45;99552.94;4937088;28;2183;-84
2023/08/28 13:38:40;;;;;;;;;;;;;;;15.67;71.47;99557.28;4936629;28;2016;-83
2023/08/28 13:41:32;;;;;;;;;;;;;;;15.66;71.46;99553.75;4940277;28;2052;-84
2023/08/28 13:44:24;;;;;;;;;;;;;;;15.68;71.53;99561.66;4955031;29;1605;-81
2023/08/28 13:47:16;;;;;;;;;;;;;;;15.71;71.49;99563.81;4953930;28;1475;-84
2023/08/28 13:50:08;;;;;;;;;;;;;;;15.71;71.48;99563.00;4954591;28;1547;-83
2023/08/28 13:53:00;;;;;;;;;;;;;;;15.72;71.50;99564.63;4954648;28;1531;-83
2023/08/28 13:55:52;;;;;;;;;;;;;;;15.72;71.71;99568.16;4950593;28;2106;-83
2023/08/28 13:58:46;;;;;;;;;;;;;;;15.73;71.59;99560.81;4949383;28;1966;-82
2023/08/28 14:01:40;;;;;;;;;;;;;;;15.75;71.77;99562.16;4955280;28;1527;-81
2023/08/28 14:04:32;;;;;;;;;;;;;;;15.75;71.90;99566.78;4954011;28;1598;-80
2023/08/28 14:07:24;;;;;;;;;;;;;;;15.78;71.78;99563.50;4953580;28;1524;-81
2023/08/28 14:10:16;;;;;;;;;;;;;;;15.78;71.82;99566.22;4948398;28;2153;-82
2023/08/28 14:13:08;;;;;;;;;;;;;;;15.81;71.68;99571.09;4938188;28;2218;-83
2023/08/28 14:16:00;;;;;;;;;;;;;;;15.80;71.74;99570.28;4934455;28;5201;-83
2023/08/28 14:18:52;;;;;;;;;;;;;;;15.83;71.78;99582.50;4940163;28;2110;-79
2023/08/28 14:21:44;;;;;;;;;;;;;;;15.83;71.78;99577.88;4940131;28;2493;-77
2023/08/28 14:24:37;;;;;;;;;;;;;;;15.85;71.77;99578.41;4956912;28;2088;-80
2023/08/28 14:27:29;;;;;;;;;;;;;;;15.85;71.75;99577.59;4955300;28;1955;-81
2023/08/28 14:30:21;;;;;;;;;;;;;;;15.87;71.77;99581.66;4953437;28;1502;-79
2023/08/28 14:33:13;;;;;;;;;;;;;;;15.88;71.84;99574.31;4952849;28;4248;-79
2023/08/28 14:36:05;;;;;;;;;;;;;;;15.89;71.87;99579.47;4948697;28;1988;-80
2023/08/28 14:38:57;;;;;;;;;;;;;;;15.90;71.82;99578.38;4953076;28;1970;-81
2023/08/28 14:41:49;;;;;;;;;;;;;;;15.92;71.94;99580.84;4957762;28;1380;-80
2023/08/28 14:44:41;;;;;;;;;;;;;;;15.93;71.88;99582.44;4955400;28;1476;-81
2023/08/28 14:47:33;;;;;;;;;;;;;;;15.93;71.84;99577.00;4954358;28;1420;-79
2023/08/28 14:50:25;;;;;;;;;;;;;;;15.95;71.96;99579.47;4953650;28;1431;-81
2023/08/28 14:53:17;;;;;;;;;;;;;;;15.96;72.10;99576.47;4954174;28;1416;-80
2023/08/28 14:56:09;;;;;;;;;;;;;;;15.97;72.09;99575.38;4957683;28;2044;-79
2023/08/28 14:59:01;;;;;;;;;;;;;;;15.98;72.11;99570.75;4950381;28;1898;-81
2023/08/28 15:01:53;;;;;;;;;;;;;;;16.00;72.21;99571.28;4960060;28;1988;-79
2023/08/28 15:04:45;;;;;;;;;;;;;;;16.00;72.11;99565.84;4957204;28;1373;-80
2023/08/28 15:07:37;;;;;;;;;;;;;;;16.02;72.20;99571.81;4954501;28;1360;-80